createdAt,value
2024-02-19T00:01:06.748Z,5.00
2024-02-19T00:03:34.040Z,4.50
2024-02-19T00:06:00.985Z,3.20
2024-02-19T00:08:28.092Z,3.30
2024-02-19T00:10:55.151Z,3.10
2024-02-19T00:13:22.262Z,6.70
2024-02-19T00:15:49.453Z,6.30
2024-02-19T00:18:16.444Z,5.20
2024-02-19T00:20:43.377Z,3.70
2024-02-19T00:23:10.309Z,4.60
2024-02-19T00:25:37.696Z,3.70
2024-02-19T00:28:04.853Z,5.00
2024-02-19T00:30:31.905Z,4.20
2024-02-19T00:33:00.108Z,4.50
2024-02-19T00:35:27.376Z,5.70
2024-02-19T00:37:54.542Z,4.90
2024-02-19T00:40:21.493Z,5.40
2024-02-19T00:42:48.384Z,6.00
2024-02-19T00:45:15.348Z,6.70
2024-02-19T00:47:42.274Z,4.80
2024-02-19T00:50:09.807Z,5.00
2024-02-19T00:52:41.349Z,6.90
2024-02-19T00:55:08.870Z,6.00
2024-02-19T00:57:35.985Z,5.30
2024-02-19T01:00:03.383Z,5.50
2024-02-19T01:02:31.104Z,5.40
2024-02-19T01:04:58.339Z,4.30
2024-02-19T01:07:25.874Z,4.80
2024-02-19T01:09:52.810Z,4.30
2024-02-19T01:12:19.718Z,3.90
2024-02-19T01:14:46.749Z,3.80
2024-02-19T01:17:13.748Z,5.10
2024-02-19T01:19:40.670Z,3.80
2024-02-19T01:22:08.073Z,5.40
2024-02-19T01:24:35.056Z,6.00
2024-02-19T01:27:01.866Z,5.10
2024-02-19T01:29:28.833Z,5.90
2024-02-19T01:31:55.780Z,4.40
2024-02-19T01:34:23.074Z,5.20
2024-02-19T01:36:50.170Z,4.20
2024-02-19T01:39:19.749Z,5.00
2024-02-19T01:41:46.698Z,4.10
2024-02-19T01:44:13.571Z,4.60
2024-02-19T01:46:41.123Z,5.40
2024-02-19T01:49:09.191Z,6.20
2024-02-19T01:51:36.465Z,6.10
2024-02-19T01:54:03.915Z,4.80
2024-02-19T01:56:31.747Z,4.60
2024-02-19T01:59:00.265Z,5.40
2024-02-19T02:01:27.226Z,4.60
2024-02-19T02:03:54.185Z,4.60
2024-02-19T02:06:24.065Z,6.30
2024-02-19T02:08:51.335Z,4.40
2024-02-19T02:11:18.295Z,5.10
2024-02-19T02:13:45.416Z,4.90
2024-02-19T02:16:12.372Z,5.20
2024-02-19T02:18:39.389Z,4.20
2024-02-19T02:21:06.482Z,4.00
2024-02-19T02:23:33.319Z,5.50
2024-02-19T02:26:00.371Z,4.40
2024-02-19T02:28:27.259Z,5.00
2024-02-19T02:30:54.212Z,4.10
2024-02-19T02:33:21.239Z,5.50
2024-02-19T02:35:48.466Z,3.10
2024-02-19T02:38:15.405Z,4.20
2024-02-19T02:40:42.310Z,2.80
2024-02-19T02:43:09.327Z,3.30
2024-02-19T02:45:36.226Z,3.30
2024-02-19T02:48:03.305Z,4.00
2024-02-19T02:50:30.431Z,3.10
2024-02-19T02:52:57.397Z,3.80
2024-02-19T02:55:24.336Z,4.00
2024-02-19T02:57:51.534Z,3.70
2024-02-19T03:00:19.343Z,4.00
2024-02-19T03:02:46.349Z,3.00
2024-02-19T03:05:13.254Z,2.90
2024-02-19T03:07:40.301Z,4.80
2024-02-19T03:10:07.639Z,4.30
2024-02-19T03:12:34.657Z,3.40
2024-02-19T03:15:01.477Z,5.50
2024-02-19T03:17:28.445Z,4.40
2024-02-19T03:19:55.451Z,4.80
2024-02-19T03:22:22.358Z,4.50
2024-02-19T03:24:49.829Z,4.80
2024-02-19T03:27:16.763Z,4.10
2024-02-19T03:29:43.769Z,7.20
2024-02-19T03:32:10.643Z,4.40
2024-02-19T03:34:37.718Z,2.50
2024-02-19T03:37:04.689Z,5.30
2024-02-19T03:39:31.634Z,4.20
2024-02-19T03:41:58.544Z,3.40
2024-02-19T03:44:25.427Z,5.20
2024-02-19T03:46:52.327Z,5.20
2024-02-19T03:49:19.392Z,4.00
2024-02-19T03:51:46.328Z,5.30
2024-02-19T03:54:14.545Z,3.50
2024-02-19T03:56:41.722Z,2.80
2024-02-19T03:59:08.502Z,4.00
2024-02-19T04:01:37.545Z,4.70
2024-02-19T04:04:04.968Z,4.10
2024-02-19T04:06:32.354Z,3.90
2024-02-19T04:08:59.189Z,3.70
2024-02-19T04:11:26.235Z,4.20
2024-02-19T04:13:53.120Z,4.20
2024-02-19T04:16:19.983Z,3.10
2024-02-19T04:18:47.223Z,5.10
2024-02-19T04:21:14.199Z,5.70
2024-02-19T04:23:41.149Z,4.70
2024-02-19T04:26:08.141Z,4.50
2024-02-19T04:28:34.968Z,3.90
2024-02-19T04:31:01.920Z,2.80
2024-02-19T04:33:29.092Z,4.80
2024-02-19T04:35:56.132Z,2.30
2024-02-19T04:38:23.001Z,3.20
2024-02-19T04:40:49.984Z,3.90
2024-02-19T04:43:16.906Z,3.50
2024-02-19T04:45:43.866Z,5.90
2024-02-19T04:48:11.055Z,2.70
2024-02-19T04:50:37.948Z,3.90
2024-02-19T04:53:04.977Z,2.90
2024-02-19T04:55:32.107Z,4.00
2024-02-19T04:57:59.013Z,3.60
2024-02-19T05:00:27.348Z,3.10
2024-02-19T05:02:54.611Z,4.30
2024-02-19T05:05:21.671Z,4.40
2024-02-19T05:07:48.718Z,5.20
2024-02-19T05:10:15.791Z,7.00
2024-02-19T05:12:42.803Z,9.80
2024-02-19T05:15:10.644Z,14.50
2024-02-19T05:17:37.736Z,12.00
2024-02-19T05:20:06.850Z,10.40
2024-02-19T05:22:34.908Z,9.50
2024-02-19T05:25:03.641Z,7.60
2024-02-19T05:27:30.740Z,10.20
2024-02-19T05:29:57.594Z,11.30
2024-02-19T05:32:24.607Z,10.50
2024-02-19T05:34:51.575Z,10.80
2024-02-19T05:37:18.706Z,12.40
2024-02-19T05:39:45.735Z,12.40
2024-02-19T05:42:12.677Z,9.40
2024-02-19T05:44:39.650Z,7.90
2024-02-19T05:47:06.655Z,11.90
2024-02-19T05:49:33.938Z,12.70
2024-02-19T05:52:00.914Z,15.10
2024-02-19T05:54:28.443Z,14.80
2024-02-19T05:56:55.324Z,13.30
2024-02-19T05:59:22.534Z,16.00
2024-02-19T06:03:22.948Z,17.30
2024-02-19T06:05:50.199Z,18.30
2024-02-19T06:08:18.049Z,16.90
2024-02-19T06:10:48.298Z,16.90
2024-02-19T06:13:16.197Z,15.80
2024-02-19T06:15:46.489Z,22.10
2024-02-19T06:18:14.671Z,33.00
2024-02-19T06:20:41.988Z,31.60
2024-02-19T06:23:09.041Z,28.00
2024-02-19T06:25:36.368Z,35.10
2024-02-19T06:28:03.799Z,27.10
2024-02-19T06:30:31.217Z,22.90
2024-02-19T06:32:58.485Z,27.40
2024-02-19T06:35:25.712Z,27.30
2024-02-19T06:37:53.028Z,37.10
2024-02-19T06:40:20.185Z,41.80
2024-02-19T06:42:47.375Z,42.10
2024-02-19T06:45:14.620Z,38.90
2024-02-19T06:47:44.517Z,42.90
2024-02-19T06:50:11.856Z,48.90
2024-02-19T06:52:44.717Z,42.30
2024-02-19T06:55:11.906Z,43.40
2024-02-19T06:57:39.157Z,34.80
2024-02-19T07:00:07.257Z,31.40
2024-02-19T07:02:34.978Z,22.80
2024-02-19T07:05:02.037Z,17.60
2024-02-19T07:07:29.990Z,23.70
2024-02-19T07:09:57.361Z,22.20
2024-02-19T07:12:25.273Z,11.80
2024-02-19T07:14:52.265Z,14.40
2024-02-19T07:17:19.392Z,9.30
2024-02-19T07:19:46.716Z,9.00
2024-02-19T07:22:14.062Z,11.20
2024-02-19T07:24:41.417Z,7.00
2024-02-19T07:27:08.609Z,7.00
2024-02-19T07:29:35.641Z,9.30
2024-02-19T07:32:03.201Z,11.00
2024-02-19T07:34:30.840Z,10.80
2024-02-19T07:36:58.286Z,10.90
2024-02-19T07:39:25.598Z,15.40
2024-02-19T07:41:52.756Z,13.70
2024-02-19T07:44:19.759Z,14.00
2024-02-19T07:46:46.748Z,10.90
2024-02-19T07:49:13.963Z,9.50
2024-02-19T07:51:41.351Z,11.40
2024-02-19T07:54:09.192Z,14.00
2024-02-19T07:56:37.318Z,11.20
2024-02-19T07:59:04.577Z,9.70
2024-02-19T08:01:31.993Z,12.70
2024-02-19T08:03:59.509Z,11.70
2024-02-19T08:06:26.918Z,10.10
2024-02-19T08:08:54.021Z,10.20
2024-02-19T08:11:22.552Z,12.70
2024-02-19T08:13:49.897Z,13.50
2024-02-19T08:16:17.560Z,9.20
2024-02-19T08:18:44.961Z,8.50
2024-02-19T08:21:12.218Z,9.40
2024-02-19T08:23:39.738Z,9.50
2024-02-19T08:26:07.028Z,8.80
2024-02-19T08:28:34.143Z,8.80
2024-02-19T08:31:02.254Z,7.30
2024-02-19T08:33:29.397Z,8.90
2024-02-19T08:35:56.348Z,7.20
2024-02-19T08:38:23.531Z,11.60
2024-02-19T08:40:50.550Z,9.30
2024-02-19T08:43:17.649Z,6.50
2024-02-19T08:45:45.459Z,6.40
2024-02-19T08:48:12.440Z,5.70
2024-02-19T08:50:39.951Z,7.60
2024-02-19T08:53:07.175Z,5.70
2024-02-19T08:55:34.148Z,4.00
2024-02-19T08:58:01.583Z,4.70
2024-02-19T09:00:31.464Z,5.70
2024-02-19T09:03:00.536Z,2.10
2024-02-19T09:05:28.517Z,2.90
2024-02-19T09:07:55.711Z,4.60
2024-02-19T09:10:23.046Z,2.90
2024-02-19T09:12:50.271Z,3.10
2024-02-19T09:15:17.895Z,2.80
2024-02-19T09:17:45.016Z,3.40
2024-02-19T09:20:13.541Z,2.50
2024-02-19T09:22:43.849Z,3.80
2024-02-19T09:25:10.789Z,3.10
2024-02-19T09:27:38.057Z,3.40
2024-02-19T09:30:05.928Z,5.70
2024-02-19T09:32:33.340Z,5.80
2024-02-19T09:35:03.303Z,4.10
2024-02-19T09:37:30.795Z,7.90
2024-02-19T09:40:01.103Z,4.80
2024-02-19T09:42:28.861Z,5.80
2024-02-19T09:44:56.109Z,5.80
2024-02-19T09:47:23.412Z,6.90
2024-02-19T09:49:50.615Z,5.80
2024-02-19T09:52:29.552Z,4.90
2024-02-19T09:54:57.811Z,4.20
2024-02-19T09:57:26.816Z,4.60
2024-02-19T09:59:54.114Z,8.20
2024-02-19T10:02:21.372Z,4.50
2024-02-19T10:04:49.614Z,3.70
2024-02-19T10:07:20.748Z,6.30
2024-02-19T10:09:48.455Z,3.30
2024-02-19T10:12:16.218Z,3.80
2024-02-19T10:14:44.480Z,4.90
2024-02-19T10:17:12.880Z,4.80
2024-02-19T10:19:41.215Z,4.90
2024-02-19T10:22:09.057Z,4.10
2024-02-19T10:24:37.480Z,5.90
2024-02-19T10:27:05.393Z,4.40
2024-02-19T10:29:32.945Z,6.20
2024-02-19T10:31:59.987Z,7.00
2024-02-19T10:34:27.306Z,4.00
2024-02-19T10:36:54.532Z,4.90
2024-02-19T10:39:21.704Z,6.30
2024-02-19T10:41:48.792Z,6.10
2024-02-19T10:44:18.391Z,5.80
2024-02-19T10:46:45.560Z,4.10
2024-02-19T10:49:15.060Z,7.10
2024-02-19T10:51:42.438Z,3.80
2024-02-19T10:54:09.396Z,5.80
2024-02-19T10:56:38.073Z,5.10
2024-02-19T10:59:05.677Z,4.60
2024-02-19T11:01:40.659Z,5.00
2024-02-19T11:04:26.183Z,4.70
2024-02-19T11:06:57.833Z,7.70
2024-02-19T11:09:30.376Z,5.60
2024-02-19T11:12:00.486Z,6.20
2024-02-19T11:14:34.802Z,5.20
2024-02-19T11:17:02.721Z,12.80
2024-02-19T11:19:31.183Z,34.60
2024-02-19T11:22:06.180Z,11.50
2024-02-19T11:24:34.639Z,6.60
2024-02-19T11:27:03.797Z,6.80
2024-02-19T11:29:36.993Z,5.80
2024-02-19T11:32:11.598Z,6.80
2024-02-19T11:34:38.891Z,3.80
2024-02-19T11:37:09.089Z,3.80
2024-02-19T11:39:36.132Z,3.50
2024-02-19T11:42:04.247Z,4.50
2024-02-19T11:44:31.779Z,4.60
2024-02-19T11:46:59.612Z,3.70
2024-02-19T11:49:27.990Z,3.80
2024-02-19T11:52:04.322Z,3.90
2024-02-19T11:54:35.444Z,3.90
2024-02-19T11:57:06.635Z,3.10
2024-02-19T11:59:34.232Z,6.90
2024-02-19T12:02:03.873Z,5.40
2024-02-19T12:04:34.572Z,2.70
2024-02-19T12:07:02.045Z,5.00
2024-02-19T12:09:29.481Z,4.90
2024-02-19T12:11:56.678Z,6.10
2024-02-19T12:14:24.097Z,4.40
2024-02-19T12:16:51.631Z,2.60
2024-02-19T12:19:18.578Z,2.90
2024-02-19T12:21:46.329Z,3.20
2024-02-19T12:24:13.677Z,3.30
2024-02-19T12:26:40.931Z,3.90
2024-02-19T12:29:08.109Z,3.40
2024-02-19T12:31:35.494Z,2.00
2024-02-19T12:34:02.818Z,3.10
2024-02-19T12:36:30.132Z,4.80
2024-02-19T12:38:58.667Z,4.10
2024-02-19T12:41:25.623Z,5.40
2024-02-19T12:43:53.146Z,6.80
2024-02-19T12:46:20.923Z,6.00
2024-02-19T12:48:47.903Z,5.30
2024-02-19T12:51:17.868Z,3.60
2024-02-19T12:53:45.463Z,4.60
2024-02-19T12:56:12.763Z,3.10
2024-02-19T12:58:39.855Z,2.50
2024-02-19T13:01:20.546Z,4.50
2024-02-19T13:03:55.032Z,3.90
2024-02-19T13:06:22.496Z,5.40
2024-02-19T13:08:50.448Z,5.80
2024-02-19T13:11:18.285Z,5.40
2024-02-19T13:13:46.060Z,6.30
2024-02-19T13:16:15.654Z,7.30
2024-02-19T13:18:43.415Z,6.50
2024-02-19T13:21:10.903Z,6.50
2024-02-19T13:23:38.017Z,7.00
2024-02-19T13:26:05.309Z,7.00
2024-02-19T13:28:32.767Z,5.80
2024-02-19T13:31:00.123Z,6.50
2024-02-19T13:33:27.765Z,7.70
2024-02-19T13:35:55.194Z,15.10
2024-02-19T13:38:23.203Z,17.00
2024-02-19T13:40:50.807Z,15.90
2024-02-19T13:43:18.325Z,20.10
2024-02-19T13:45:58.149Z,17.10
2024-02-19T13:48:26.389Z,16.70
2024-02-19T13:50:56.741Z,10.40
2024-02-19T13:53:26.669Z,12.70
2024-02-19T13:55:54.546Z,17.00
2024-02-19T13:58:23.615Z,13.60
2024-02-19T14:00:51.788Z,9.00
2024-02-19T14:03:20.333Z,26.70
2024-02-19T14:05:48.581Z,31.20
2024-02-19T14:08:16.296Z,20.00
2024-02-19T14:10:43.651Z,27.70
2024-02-19T14:13:11.044Z,17.00
2024-02-19T14:15:40.237Z,23.00
2024-02-19T14:18:07.182Z,16.00
2024-02-19T14:20:34.541Z,18.80
2024-02-19T14:23:01.844Z,19.10
2024-02-19T14:25:29.044Z,22.10
2024-02-19T14:27:56.331Z,65.80
2024-02-19T14:30:23.538Z,53.40
2024-02-19T14:32:51.093Z,22.10
2024-02-19T14:35:18.552Z,50.10
2024-02-19T14:37:45.996Z,45.50
2024-02-19T14:40:18.846Z,28.00
2024-02-19T14:42:46.970Z,16.10
2024-02-19T14:45:14.402Z,16.20
2024-02-19T14:47:44.495Z,15.80
2024-02-19T14:50:11.969Z,15.80
2024-02-19T14:52:39.654Z,40.50
2024-02-19T14:55:16.218Z,44.90
2024-02-19T14:57:45.938Z,39.90
2024-02-19T15:00:18.222Z,29.60
2024-02-19T15:02:46.366Z,32.70
2024-02-19T15:05:13.907Z,39.00
2024-02-19T15:07:46.519Z,39.60
2024-02-19T15:10:16.506Z,41.70
2024-02-19T15:12:44.590Z,35.90
2024-02-19T15:15:14.864Z,33.40
2024-02-19T15:17:42.541Z,32.40
2024-02-19T15:20:10.771Z,31.30
2024-02-19T15:22:38.203Z,28.90
2024-02-19T15:25:07.484Z,47.20
2024-02-19T15:27:34.576Z,45.00
2024-02-19T15:30:01.798Z,47.30
2024-02-19T15:32:29.605Z,38.20
2024-02-19T15:34:56.787Z,35.50
2024-02-19T15:37:24.522Z,45.70
2024-02-19T15:39:51.731Z,44.20
2024-02-19T15:42:19.151Z,46.90
2024-02-19T15:44:48.151Z,43.50
2024-02-19T15:47:15.311Z,41.40
2024-02-19T15:49:42.468Z,41.50
2024-02-19T15:52:09.832Z,37.00
2024-02-19T15:54:40.687Z,40.10
2024-02-19T15:57:07.877Z,38.20
2024-02-19T15:59:36.581Z,41.10
2024-02-19T16:02:04.244Z,28.70
2024-02-19T16:04:31.805Z,29.00
2024-02-19T16:06:59.203Z,31.90
2024-02-19T16:09:26.284Z,26.10
2024-02-19T16:11:55.186Z,26.10
2024-02-19T16:14:22.434Z,23.40
2024-02-19T16:16:49.469Z,24.10
2024-02-19T16:19:19.933Z,23.30
2024-02-19T16:21:48.329Z,18.30
2024-02-19T16:24:15.934Z,18.90
2024-02-19T16:26:42.987Z,16.40
2024-02-19T16:29:11.945Z,14.30
2024-02-19T16:31:40.125Z,16.80
2024-02-19T16:34:07.964Z,14.90
2024-02-19T16:36:35.127Z,13.40
2024-02-19T16:39:02.128Z,12.80
2024-02-19T16:41:29.372Z,14.00
2024-02-19T16:43:56.445Z,14.00
2024-02-19T16:46:26.597Z,12.10
2024-02-19T16:48:54.048Z,14.70
2024-02-19T16:51:21.250Z,13.30
2024-02-19T16:53:54.456Z,14.00
2024-02-19T16:56:23.699Z,17.00
2024-02-19T16:58:50.928Z,13.20
2024-02-19T17:01:19.068Z,16.90
2024-02-19T17:03:47.921Z,15.70
2024-02-19T17:06:15.177Z,13.90
2024-02-19T17:08:43.833Z,19.10
2024-02-19T17:11:11.438Z,14.80
2024-02-19T17:13:38.677Z,13.90
2024-02-19T17:23:48.980Z,14.50
2024-02-19T17:26:16.027Z,13.80
2024-02-19T17:28:43.289Z,10.40
2024-02-19T17:31:12.538Z,12.90
2024-02-19T17:33:39.873Z,11.50
2024-02-19T17:36:07.417Z,13.70
2024-02-19T17:38:34.495Z,15.20
2024-02-19T17:41:02.418Z,13.80
2024-02-19T17:43:30.168Z,16.60
2024-02-19T17:45:58.384Z,18.50
2024-02-19T17:48:28.233Z,16.80
2024-02-19T17:50:55.656Z,16.70
2024-02-19T17:53:23.016Z,17.80
2024-02-19T17:55:50.007Z,20.80
2024-02-19T17:58:16.947Z,17.50
2024-02-19T18:00:44.468Z,23.20
2024-02-19T18:03:11.935Z,22.00
2024-02-19T18:05:39.096Z,20.00
2024-02-19T18:08:06.888Z,18.40
2024-02-19T18:10:34.208Z,17.80
2024-02-19T18:13:01.678Z,22.10
2024-02-19T18:15:29.141Z,20.50
2024-02-19T18:17:58.186Z,22.70
2024-02-19T18:20:25.495Z,20.70
2024-02-19T18:22:53.669Z,18.30
2024-02-19T18:25:21.368Z,20.30
2024-02-19T18:27:48.631Z,18.90
2024-02-19T18:30:15.670Z,18.90
2024-02-19T18:32:43.012Z,15.70
2024-02-19T18:35:10.319Z,17.10
2024-02-19T18:37:37.823Z,14.40
2024-02-19T18:40:10.305Z,16.80
2024-02-19T18:42:39.273Z,17.10
2024-02-19T18:45:07.227Z,14.50
2024-02-19T18:47:34.445Z,16.10
2024-02-19T18:50:02.028Z,12.50
2024-02-19T18:52:29.794Z,12.20
2024-02-19T18:54:56.898Z,14.50
2024-02-19T18:57:24.802Z,13.70
2024-02-19T18:59:51.845Z,13.70
2024-02-19T19:02:19.029Z,15.00
2024-02-19T19:04:46.913Z,20.60
2024-02-19T19:07:18.711Z,28.80
2024-02-19T19:09:46.529Z,31.80
2024-02-19T19:12:14.098Z,32.50
2024-02-19T19:14:41.759Z,29.10
2024-02-19T19:17:10.318Z,32.10
2024-02-19T19:19:39.944Z,34.40
2024-02-19T19:22:07.751Z,24.20
2024-02-19T19:24:35.468Z,24.30
2024-02-19T19:27:05.756Z,19.60
2024-02-19T19:29:34.378Z,24.90
2024-02-19T19:32:01.472Z,20.70
2024-02-19T19:34:28.710Z,19.30
2024-02-19T19:36:55.853Z,19.00
2024-02-19T19:39:22.910Z,20.90
2024-02-19T19:41:50.284Z,20.80
2024-02-19T19:44:20.611Z,22.00
2024-02-19T19:46:47.760Z,21.00
2024-02-19T19:49:18.345Z,15.70
2024-02-19T19:51:45.708Z,16.30
2024-02-19T19:54:12.911Z,16.10
2024-02-19T19:56:42.023Z,22.40
2024-02-19T19:59:09.728Z,22.90
2024-02-19T20:01:37.662Z,25.90
2024-02-19T20:04:06.473Z,22.70
2024-02-19T20:06:34.368Z,32.40
2024-02-19T20:09:01.952Z,26.10
2024-02-19T20:11:29.116Z,24.80
2024-02-19T20:13:56.262Z,25.30
2024-02-19T20:16:23.368Z,21.20
2024-02-19T20:18:50.838Z,21.70
2024-02-19T20:21:18.123Z,19.00
2024-02-19T20:23:46.210Z,18.30
2024-02-19T20:26:13.517Z,22.30
2024-02-19T20:28:40.777Z,17.70
2024-02-19T20:31:07.865Z,25.70
2024-02-19T20:33:35.428Z,21.50
2024-02-19T20:36:04.673Z,18.00
2024-02-19T20:38:31.730Z,22.30
2024-02-19T20:40:58.746Z,20.50
2024-02-19T20:43:25.920Z,24.00
2024-02-19T20:45:52.910Z,21.30
2024-02-19T20:48:20.800Z,17.10
2024-02-19T20:50:48.181Z,19.20
2024-02-19T20:53:15.426Z,21.40
2024-02-19T20:55:42.821Z,18.80
2024-02-19T20:58:10.073Z,23.80
2024-02-19T21:00:37.342Z,30.60
2024-02-19T21:03:04.622Z,28.30
2024-02-19T21:05:32.034Z,25.10
2024-02-19T21:07:59.312Z,25.70
2024-02-19T21:10:28.979Z,25.80
2024-02-19T21:12:57.356Z,24.50
2024-02-19T21:15:25.603Z,28.20
2024-02-19T21:17:53.056Z,31.90
2024-02-19T21:20:20.349Z,43.10
2024-02-19T21:22:47.655Z,44.90
2024-02-19T21:25:15.041Z,36.80
2024-02-19T21:27:42.161Z,42.40
2024-02-19T21:30:10.395Z,40.40
2024-02-19T21:32:38.107Z,32.00
2024-02-19T21:35:08.316Z,29.10
2024-02-19T21:37:36.671Z,31.00
2024-02-19T21:40:05.671Z,31.10
2024-02-19T21:42:35.484Z,26.20
2024-02-19T21:45:04.926Z,27.70
2024-02-19T21:47:32.517Z,24.30
2024-02-19T21:50:00.508Z,24.00
2024-02-19T21:52:30.106Z,30.00
2024-02-19T21:54:57.516Z,27.80
2024-02-19T21:57:24.577Z,25.40
2024-02-19T21:59:54.340Z,21.50
2024-02-19T22:02:22.000Z,24.30
2024-02-19T22:04:50.519Z,28.70
2024-02-19T22:07:19.132Z,35.90
2024-02-19T22:09:46.302Z,35.10
2024-02-19T22:12:13.392Z,37.20
2024-02-19T22:14:40.918Z,37.80
2024-02-19T22:17:08.302Z,38.00
2024-02-19T22:19:35.566Z,50.10
2024-02-19T22:22:02.788Z,65.50
2024-02-19T22:24:30.144Z,48.20
2024-02-19T22:26:57.282Z,33.10
2024-02-19T22:29:24.332Z,30.50
2024-02-19T22:31:51.411Z,30.60
2024-02-19T22:34:19.996Z,41.10
2024-02-19T22:36:47.230Z,89.00
2024-02-19T22:39:14.326Z,79.20
2024-02-19T22:41:43.501Z,103.20
2024-02-19T22:44:10.402Z,98.20
2024-02-19T22:46:37.334Z,103.60
2024-02-19T22:49:04.512Z,113.60
2024-02-19T22:51:31.828Z,121.90
2024-02-19T22:53:59.081Z,117.00
2024-02-19T22:56:26.100Z,116.50
2024-02-19T22:59:00.923Z,104.90
2024-02-19T23:01:35.092Z,82.90
2024-02-19T23:04:02.331Z,62.40
2024-02-19T23:06:29.644Z,82.30
2024-02-19T23:08:56.992Z,91.20
2024-02-19T23:11:24.008Z,55.60
2024-02-19T23:13:52.175Z,57.90
2024-02-19T23:16:19.415Z,36.10
2024-02-19T23:18:46.899Z,31.90
2024-02-19T23:21:17.496Z,62.60
2024-02-19T23:23:44.426Z,61.60
2024-02-19T23:26:11.505Z,104.90
2024-02-19T23:28:38.577Z,97.40
2024-02-19T23:31:06.045Z,85.30
2024-02-19T23:33:33.224Z,116.60
2024-02-19T23:36:00.389Z,118.40
2024-02-19T23:38:27.759Z,113.00
2024-02-19T23:40:54.878Z,86.20
2024-02-19T23:43:22.144Z,51.30
2024-02-19T23:45:49.801Z,23.70
2024-02-19T23:48:17.807Z,14.00
2024-02-19T23:50:45.114Z,17.50
2024-02-19T23:53:12.200Z,14.60
2024-02-19T23:55:42.307Z,16.20
